Time;durP1;ratioP1;P1;durP2;ratioP2;P2;SDS_P1;SDS_P2;PMS_P1;PMS_P2;Temp;Humidity;BMP_temperature;BMP_pressure;BME280_temperature;BME280_humidity;BME280_pressure;Samples;Min_cycle;Max_cycle;Signal;HPM_P1;HPM_P2
2023/11/11 00:00:41;;;;;;;1.90;1.70;;;10.20;99.90;;;;;;5097227;28;20243;-82
2023/11/11 00:03:10;;;;;;;2.30;2.10;;;10.20;99.90;;;;;;5096934;28;20228;-81
2023/11/11 00:05:37;;;;;;;7.93;6.63;;;10.20;99.90;;;;;;5097357;28;20223;-79
2023/11/11 00:08:05;;;;;;;8.63;6.30;;;10.20;99.90;;;;;;5096256;28;20227;-80
2023/11/11 00:10:33;;;;;;;4.20;2.90;;;10.20;99.90;;;;;;5097170;28;20218;-79
2023/11/11 00:13:02;;;;;;;4.55;3.10;;;10.20;99.90;;;;;;5093939;28;20252;-81
2023/11/11 00:15:32;;;;;;;4.15;2.75;;;10.20;99.90;;;;;;5105416;28;20311;-82
2023/11/11 00:17:58;;;;;;;2.08;1.92;;;10.20;99.90;;;;;;5096898;28;20223;-82
2023/11/11 00:20:27;;;;;;;2.60;2.40;;;10.20;99.90;;;;;;5096588;28;20223;-80
2023/11/11 00:22:54;;;;;;;5.00;2.40;;;10.20;99.90;;;;;;5096698;28;20327;-81
2023/11/11 00:25:23;;;;;;;3.00;2.42;;;10.20;99.90;;;;;;5096466;28;20261;-80
2023/11/11 00:27:50;;;;;;;3.20;2.25;;;10.20;99.90;;;;;;5096459;28;20223;-82
2023/11/11 00:30:19;;;;;;;2.60;1.85;;;10.10;99.90;;;;;;5096250;28;20234;-80
2023/11/11 00:32:50;;;;;;;3.65;1.80;;;10.10;99.90;;;;;;5096200;28;20548;-80
2023/11/11 00:35:18;;;;;;;2.88;2.22;;;10.10;99.90;;;;;;5095410;28;20239;-78
2023/11/11 00:37:48;;;;;;;3.33;2.10;;;10.10;99.90;;;;;;5096238;28;20223;-81
2023/11/11 00:40:15;;;;;;;3.05;2.58;;;10.10;99.90;;;;;;5095254;28;20224;-81
2023/11/11 00:42:42;;;;;;;2.10;1.90;;;10.10;99.90;;;;;;5095692;28;20219;-83
2023/11/11 00:45:09;;;;;;;2.88;2.20;;;10.10;99.90;;;;;;5100309;28;20226;-83
2023/11/11 00:47:52;;;;;;;3.40;2.22;;;10.10;99.90;;;;;;5096054;28;20222;-82
2023/11/11 00:50:18;;;;;;;2.47;2.28;;;10.10;99.90;;;;;;5095685;28;20298;-80
2023/11/11 00:52:47;;;;;;;3.97;2.67;;;10.10;99.90;;;;;;5095886;28;20382;-82
2023/11/11 00:55:14;;;;;;;2.58;2.28;;;10.10;99.90;;;;;;5095531;28;20843;-81
2023/11/11 00:57:43;;;;;;;4.15;2.33;;;10.10;99.90;;;;;;5095502;28;20223;-81
2023/11/11 01:00:10;;;;;;;4.15;2.30;;;10.10;99.90;;;;;;5095896;28;20220;-81
2023/11/11 01:02:38;;;;;;;2.50;1.52;;;10.10;99.90;;;;;;5094235;28;20333;-81
2023/11/11 01:05:05;;;;;;;2.97;2.28;;;10.00;99.90;;;;;;5095662;28;20319;-79
2023/11/11 01:07:32;;;;;;;2.20;2.00;;;10.00;99.90;;;;;;5094871;28;20310;-79
2023/11/11 01:10:04;;;;;;;2.60;2.40;;;10.00;99.90;;;;;;5094817;28;20631;-79
2023/11/11 01:12:31;;;;;;;4.78;2.28;;;9.90;99.90;;;;;;5094786;28;20300;-79
2023/11/11 01:14:58;;;;;;;2.40;2.08;;;9.90;99.90;;;;;;5094828;28;20314;-78
2023/11/11 01:17:25;;;;;;;3.75;2.47;;;10.00;99.90;;;;;;5095175;28;20564;-79
2023/11/11 01:19:52;;;;;;;3.78;2.45;;;9.90;99.90;;;;;;5095596;28;20257;-79
2023/11/11 01:22:19;;;;;;;1.98;1.80;;;9.90;99.90;;;;;;5094987;28;20227;-80
2023/11/11 01:24:46;;;;;;;3.10;1.85;;;9.90;99.90;;;;;;5094846;28;20322;-79
2023/11/11 01:27:15;;;;;;;2.05;1.85;;;9.90;99.90;;;;;;5094892;28;20223;-79
2023/11/11 01:29:42;;;;;;;3.80;2.40;;;9.80;99.90;;;;;;5094572;28;20234;-79
2023/11/11 01:32:09;;;;;;;2.50;2.30;;;9.80;99.90;;;;;;5095097;28;20484;-79
2023/11/11 01:34:36;;;;;;;1.85;1.75;;;9.80;99.90;;;;;;5094567;28;20223;-79
2023/11/11 01:37:05;;;;;;;4.25;2.65;;;9.80;99.90;;;;;;5112854;28;20230;-81
2023/11/11 01:39:32;;;;;;;2.50;2.30;;;9.80;99.90;;;;;;5114343;28;20313;-81
2023/11/11 01:41:59;;;;;;;4.22;2.20;;;9.80;99.90;;;;;;5115543;28;20241;-81
2023/11/11 01:44:27;;;;;;;4.05;2.13;;;9.70;99.90;;;;;;5099327;28;20258;-81
2023/11/11 01:46:55;;;;;;;2.08;1.80;;;9.70;99.90;;;;;;5095042;28;20219;-79
2023/11/11 01:49:23;;;;;;;3.35;2.63;;;9.70;99.90;;;;;;5094326;28;20227;-79
2023/11/11 01:51:51;;;;;;;2.83;2.38;;;9.70;99.90;;;;;;5094523;28;20589;-79
2023/11/11 01:54:20;;;;;;;4.05;2.15;;;9.60;99.90;;;;;;5094972;28;20733;-81
2023/11/11 01:56:47;;;;;;;4.13;2.70;;;9.60;99.90;;;;;;5094497;28;20231;-81
2023/11/11 01:59:17;;;;;;;2.60;2.28;;;9.60;99.90;;;;;;5092779;28;20247;-81
2023/11/11 02:01:46;;;;;;;2.25;2.08;;;9.50;99.90;;;;;;5094180;28;20219;-81
2023/11/11 02:04:14;;;;;;;2.40;2.20;;;9.50;99.90;;;;;;5094410;28;20234;-78
2023/11/11 02:06:41;;;;;;;2.97;2.05;;;9.50;99.90;;;;;;5092478;28;20227;-79
2023/11/11 02:09:08;;;;;;;2.50;1.90;;;9.50;99.90;;;;;;5092909;28;20246;-79
2023/11/11 02:11:35;;;;;;;2.78;1.73;;;9.50;99.90;;;;;;5093858;28;20664;-81
2023/11/11 02:14:02;;;;;;;3.00;2.05;;;9.50;99.90;;;;;;5089415;28;20654;-81
2023/11/11 02:16:34;;;;;;;2.88;2.05;;;9.40;99.90;;;;;;5073974;28;20247;-79
2023/11/11 02:19:02;;;;;;;2.67;2.15;;;9.50;99.90;;;;;;5074357;28;20688;-79
2023/11/11 02:21:31;;;;;;;2.83;2.17;;;9.50;99.90;;;;;;5073491;28;20231;-79
2023/11/11 02:24:00;;;;;;;4.50;2.20;;;9.50;99.90;;;;;;5074665;28;20224;-81
2023/11/11 02:26:27;;;;;;;4.03;2.20;;;9.40;99.90;;;;;;5073108;28;20228;-81
2023/11/11 02:28:55;;;;;;;2.88;1.88;;;9.40;99.90;;;;;;5093571;28;20762;-82
2023/11/11 02:31:22;;;;;;;2.67;2.30;;;9.40;99.90;;;;;;5094385;28;20235;-78
2023/11/11 02:33:49;;;;;;;2.20;2.00;;;9.30;99.90;;;;;;5093695;28;20315;-80
2023/11/11 02:36:19;;;;;;;1.80;1.70;;;9.30;99.90;;;;;;5092701;28;20223;-81
2023/11/11 02:38:46;;;;;;;5.00;2.28;;;9.30;99.90;;;;;;5092687;28;20231;-79
2023/11/11 02:41:15;;;;;;;2.40;2.00;;;9.30;99.90;;;;;;5093228;28;20680;-78
2023/11/11 02:43:41;;;;;;;4.28;2.42;;;9.30;99.90;;;;;;5092258;28;20306;-79
2023/11/11 02:46:08;;;;;;;2.92;2.35;;;9.30;99.90;;;;;;5093328;28;20276;-79
2023/11/11 02:48:35;;;;;;;2.10;1.92;;;9.30;99.90;;;;;;5092097;28;20308;-78
2023/11/11 02:51:02;;;;;;;2.55;2.35;;;9.30;99.90;;;;;;5093270;28;20231;-78
2023/11/11 02:53:29;;;;;;;3.47;2.30;;;9.30;99.90;;;;;;5092283;28;20231;-79
2023/11/11 02:55:56;;;;;;;4.25;2.55;;;9.30;99.90;;;;;;5093191;28;20591;-79
2023/11/11 02:58:25;;;;;;;5.72;3.40;;;9.30;99.90;;;;;;5093127;28;20735;-79
2023/11/11 03:00:53;;;;;;;4.65;2.95;;;9.20;99.90;;;;;;5092653;28;20226;-78
2023/11/11 03:03:21;;;;;;;5.90;2.45;;;9.20;99.90;;;;;;5092877;28;20223;-79
2023/11/11 03:05:49;;;;;;;3.10;2.80;;;9.10;99.90;;;;;;5092388;28;20567;-81
2023/11/11 03:08:16;;;;;;;3.50;2.45;;;9.10;99.90;;;;;;5092831;28;20230;-81
2023/11/11 03:10:43;;;;;;;2.67;2.50;;;9.10;99.90;;;;;;5092511;28;20231;-81
2023/11/11 03:13:10;;;;;;;2.53;2.30;;;9.10;99.90;;;;;;5092738;28;20314;-81
2023/11/11 03:15:38;;;;;;;2.70;2.25;;;9.00;99.90;;;;;;5092310;28;20632;-79
2023/11/11 03:18:06;;;;;;;2.50;2.30;;;9.00;99.90;;;;;;5092231;28;20305;-79
2023/11/11 03:20:33;;;;;;;2.35;2.15;;;9.00;99.90;;;;;;5091873;28;20223;-79
2023/11/11 03:22:59;;;;;;;2.60;2.40;;;9.00;99.90;;;;;;5092056;28;20235;-79
2023/11/11 03:25:26;;;;;;;3.80;2.70;;;9.00;99.90;;;;;;5092165;28;20228;-78
2023/11/11 03:27:52;;;;;;;5.40;2.88;;;9.00;99.90;;;;;;5094535;28;20310;-79
2023/11/11 03:30:19;;;;;;;4.45;2.25;;;9.00;99.90;;;;;;5096230;28;20306;-78
2023/11/11 03:32:48;;;;;;;2.47;2.28;;;9.00;99.90;;;;;;5095344;28;20322;-79
2023/11/11 03:35:15;;;;;;;3.58;2.10;;;9.00;99.90;;;;;;5050594;28;1283479;-79
2023/11/11 03:37:45;;;;;;;6.38;2.58;;;9.00;99.90;;;;;;5095749;28;20306;-79
2023/11/11 03:40:12;;;;;;;5.90;2.83;;;9.00;99.90;;;;;;5097034;28;20223;-79
2023/11/11 03:42:40;;;;;;;3.42;2.78;;;9.00;99.90;;;;;;5096415;28;20238;-79
2023/11/11 03:45:09;;;;;;;4.18;2.13;;;9.00;99.90;;;;;;5097249;28;20630;-79
2023/11/11 03:47:38;;;;;;;4.15;2.53;;;9.00;99.90;;;;;;5096428;28;20242;-79
2023/11/11 03:50:08;;;;;;;3.20;2.83;;;9.00;99.90;;;;;;5096935;28;20216;-79
2023/11/11 03:52:35;;;;;;;2.50;1.92;;;9.00;99.90;;;;;;5096942;28;20231;-79
2023/11/11 03:55:01;;;;;;;2.75;2.50;;;9.00;99.90;;;;;;5096877;28;20291;-80
2023/11/11 03:57:28;;;;;;;2.55;2.35;;;9.00;99.90;;;;;;5096807;28;20670;-81
2023/11/11 03:59:55;;;;;;;3.55;3.08;;;9.00;99.90;;;;;;5097046;28;20737;-81
2023/11/11 04:02:22;;;;;;;4.28;2.95;;;9.00;99.90;;;;;;5095611;28;20303;-80
2023/11/11 04:04:49;;;;;;;3.00;2.80;;;9.00;99.90;;;;;;5096310;28;20304;-80
2023/11/11 04:07:17;;;;;;;2.88;2.53;;;9.00;99.90;;;;;;5096622;28;20310;-80
2023/11/11 04:09:46;;;;;;;3.08;2.88;;;9.00;99.90;;;;;;5095998;28;20247;-80
2023/11/11 04:12:13;;;;;;;10.90;3.38;;;9.00;99.90;;;;;;5096557;28;20623;-80
2023/11/11 04:14:40;;;;;;;3.28;2.97;;;9.00;99.90;;;;;;5095752;28;20636;-81
2023/11/11 04:17:07;;;;;;;3.70;2.42;;;9.00;99.90;;;;;;5096188;28;20223;-80
2023/11/11 04:19:34;;;;;;;4.55;3.60;;;9.00;99.90;;;;;;5095883;28;20318;-79
2023/11/11 04:22:23;;;;;;;6.10;3.40;;;9.00;99.90;;;;;;5095973;28;20279;-79
2023/11/11 04:24:50;;;;;;;5.30;2.97;;;9.00;99.90;;;;;;5094231;28;20272;-80
2023/11/11 04:27:17;;;;;;;4.55;2.58;;;9.00;99.90;;;;;;5095938;28;20699;-80
2023/11/11 04:29:44;;;;;;;5.90;3.08;;;9.00;99.90;;;;;;5095095;28;20223;-80
2023/11/11 04:32:12;;;;;;;3.63;3.00;;;9.00;99.90;;;;;;5095841;28;20295;-81
2023/11/11 04:34:43;;;;;;;3.58;2.80;;;9.00;99.90;;;;;;5095563;28;20289;-80
2023/11/11 04:37:10;;;;;;;3.60;3.10;;;9.00;99.90;;;;;;5076919;28;20289;-81
2023/11/11 04:39:40;;;;;;;5.13;3.85;;;9.00;99.90;;;;;;5074119;28;20540;-80
2023/11/11 04:42:10;;;;;;;4.25;3.58;;;9.10;99.90;;;;;;5074260;28;20299;-81
2023/11/11 04:44:37;;;;;;;5.10;3.38;;;9.10;99.90;;;;;;5075362;28;20250;-81
2023/11/11 04:47:04;;;;;;;4.63;3.08;;;9.10;99.90;;;;;;5074106;28;20236;-81
2023/11/11 04:49:31;;;;;;;3.88;2.90;;;9.10;99.90;;;;;;5075504;28;20306;-81
2023/11/11 04:51:58;;;;;;;4.65;3.75;;;9.20;99.90;;;;;;5075149;28;20307;-80
2023/11/11 04:54:26;;;;;;;4.47;3.70;;;9.20;99.90;;;;;;5075344;28;20326;-81
2023/11/11 04:56:55;;;;;;;4.00;3.05;;;9.20;99.90;;;;;;5073881;28;20220;-81
2023/11/11 04:59:22;;;;;;;5.55;3.13;;;9.20;99.90;;;;;;5075438;28;20254;-80
2023/11/11 05:01:53;;;;;;;4.70;3.65;;;9.20;99.90;;;;;;5073662;28;20307;-80
2023/11/11 05:04:21;;;;;;;3.17;2.92;;;9.30;99.90;;;;;;5075437;28;20609;-79
2023/11/11 05:06:47;;;;;;;3.15;2.95;;;9.30;99.90;;;;;;5074972;28;20278;-79
2023/11/11 05:09:14;;;;;;;4.37;2.83;;;9.30;99.90;;;;;;5075107;28;20220;-78
2023/11/11 05:11:43;;;;;;;4.10;3.00;;;9.30;99.90;;;;;;5075192;28;20466;-80
2023/11/11 05:14:13;;;;;;;3.35;3.08;;;9.30;99.90;;;;;;5075134;28;20285;-81
2023/11/11 05:16:40;;;;;;;2.60;2.40;;;9.30;99.90;;;;;;5074662;28;20310;-80
2023/11/11 05:19:07;;;;;;;2.95;2.45;;;9.30;99.90;;;;;;5074669;28;20215;-81
2023/11/11 05:21:34;;;;;;;5.10;3.22;;;9.30;99.90;;;;;;5075399;28;20307;-80
2023/11/11 05:24:01;;;;;;;3.10;2.83;;;9.30;99.90;;;;;;5074200;28;20311;-80
2023/11/11 05:26:28;;;;;;;4.05;3.20;;;9.30;99.90;;;;;;5074777;28;20311;-80
2023/11/11 05:28:56;;;;;;;3.47;3.13;;;9.30;99.90;;;;;;5074527;28;20223;-80
2023/11/11 05:31:25;;;;;;;4.55;3.00;;;9.30;99.90;;;;;;5074527;28;20219;-80
2023/11/11 05:33:52;;;;;;;6.55;3.70;;;9.30;99.90;;;;;;5074330;28;20603;-79
2023/11/11 05:36:20;;;;;;;4.15;3.30;;;9.40;99.90;;;;;;5074524;28;20302;-78
2023/11/11 05:38:47;;;;;;;4.10;3.10;;;9.40;99.90;;;;;;5074452;28;20222;-79
2023/11/11 05:41:14;;;;;;;3.33;2.97;;;9.40;99.90;;;;;;5073953;28;20307;-79
2023/11/11 05:43:41;;;;;;;4.03;3.45;;;9.40;99.90;;;;;;5074546;28;20298;-79
2023/11/11 05:46:09;;;;;;;4.32;3.92;;;9.40;99.90;;;;;;5074236;28;20236;-79
2023/11/11 05:48:40;;;;;;;4.57;3.35;;;9.40;99.90;;;;;;5073963;28;20215;-79
2023/11/11 05:51:08;;;;;;;3.72;3.42;;;9.30;99.90;;;;;;5074409;28;20247;-79
2023/11/11 05:53:35;;;;;;;4.30;3.80;;;9.30;99.90;;;;;;5074476;28;20243;-79
2023/11/11 05:56:02;;;;;;;5.07;4.57;;;9.20;99.90;;;;;;5073928;28;20262;-79
2023/11/11 05:58:29;;;;;;;4.18;3.75;;;9.20;99.90;;;;;;5074650;28;20306;-80
2023/11/11 06:00:57;;;;;;;4.30;3.90;;;9.20;99.90;;;;;;5073958;28;20228;-82
2023/11/11 06:03:25;;;;;;;3.65;3.35;;;9.20;99.90;;;;;;5074322;28;20223;-81
2023/11/11 06:05:53;;;;;;;4.75;3.67;;;9.20;99.90;;;;;;5073618;28;20722;-82
2023/11/11 06:08:20;;;;;;;6.97;3.47;;;9.20;99.90;;;;;;5074369;28;20248;-81
2023/11/11 06:10:48;;;;;;;4.55;3.30;;;9.20;99.90;;;;;;5074498;28;20228;-81
2023/11/11 06:13:15;;;;;;;4.38;3.20;;;9.20;99.90;;;;;;5073649;28;20231;-81
2023/11/11 06:15:44;;;;;;;6.25;3.30;;;9.20;99.90;;;;;;5074345;28;20262;-81
2023/11/11 06:18:11;;;;;;;4.13;3.83;;;9.20;99.90;;;;;;5073886;28;20224;-81
2023/11/11 06:20:38;;;;;;;3.60;3.30;;;9.20;99.90;;;;;;5074659;28;20308;-81
2023/11/11 06:23:06;;;;;;;4.35;3.83;;;9.20;99.90;;;;;;5065249;28;20243;-81
2023/11/11 06:25:33;;;;;;;6.43;3.50;;;9.20;99.90;;;;;;5074205;28;20260;-81
2023/11/11 06:28:00;;;;;;;5.53;3.70;;;9.20;99.90;;;;;;5073469;28;20227;-81
2023/11/11 06:30:27;;;;;;;5.82;4.55;;;9.20;99.90;;;;;;5073844;28;20232;-81
2023/11/11 06:32:56;;;;;;;5.55;3.60;;;9.20;99.90;;;;;;5074324;28;20227;-81
2023/11/11 06:35:26;;;;;;;4.85;3.67;;;9.20;99.90;;;;;;5073878;28;20235;-80
2023/11/11 06:37:53;;;;;;;4.28;3.55;;;9.20;99.90;;;;;;5074092;28;20228;-81
2023/11/11 06:40:21;;;;;;;3.83;3.33;;;9.20;99.90;;;;;;5073132;28;20576;-80
2023/11/11 06:42:49;;;;;;;4.07;3.00;;;9.10;99.90;;;;;;5074290;28;20230;-80
2023/11/11 06:45:16;;;;;;;3.65;3.35;;;9.10;99.90;;;;;;5073227;28;20231;-80
2023/11/11 06:47:43;;;;;;;5.45;4.07;;;9.10;99.90;;;;;;5073429;28;20288;-81
2023/11/11 06:50:10;;;;;;;5.97;4.15;;;9.00;99.90;;;;;;5073881;28;20230;-81
2023/11/11 06:52:37;;;;;;;6.00;3.58;;;9.00;99.90;;;;;;5073389;28;20307;-81
2023/11/11 06:55:05;;;;;;;5.93;4.15;;;9.00;99.90;;;;;;5073343;28;20737;-81
2023/11/11 06:57:33;;;;;;;4.60;3.85;;;9.00;99.90;;;;;;5073939;28;20219;-81
2023/11/11 07:00:01;;;;;;;4.63;3.88;;;8.90;99.90;;;;;;5073240;28;20306;-81
2023/11/11 07:02:28;;;;;;;4.13;3.72;;;8.90;99.90;;;;;;5077430;28;20289;-81
2023/11/11 07:04:57;;;;;;;5.15;4.30;;;8.90;99.90;;;;;;5077426;28;20232;-81
2023/11/11 07:07:24;;;;;;;4.03;3.30;;;8.90;99.90;;;;;;5076950;28;20234;-81
2023/11/11 07:09:54;;;;;;;4.90;4.10;;;8.90;99.90;;;;;;5077471;28;20611;-80
2023/11/11 07:12:22;;;;;;;7.18;4.10;;;8.90;99.90;;;;;;5076993;28;21217;-80
2023/11/11 07:14:50;;;;;;;4.07;3.72;;;8.90;99.90;;;;;;5077166;28;20223;-80
2023/11/11 07:17:18;;;;;;;7.45;3.70;;;8.90;99.90;;;;;;5077500;28;20337;-81
2023/11/11 07:19:45;;;;;;;4.70;4.25;;;8.90;99.90;;;;;;5078279;28;20219;-81
2023/11/11 07:22:14;;;;;;;4.97;3.92;;;8.90;99.90;;;;;;5076795;28;20287;-81
2023/11/11 07:24:42;;;;;;;3.78;3.35;;;9.00;99.90;;;;;;5077025;28;20220;-81
2023/11/11 07:27:09;;;;;;;4.40;3.53;;;9.00;99.90;;;;;;5076847;28;20307;-81
2023/11/11 07:29:36;;;;;;;4.30;3.40;;;9.00;99.90;;;;;;5077712;28;20220;-81
2023/11/11 07:32:05;;;;;;;5.32;3.75;;;9.10;99.90;;;;;;5077246;28;20284;-81
2023/11/11 07:34:33;;;;;;;5.00;4.60;;;9.10;99.90;;;;;;5075625;28;20298;-79
2023/11/11 07:37:00;;;;;;;6.05;3.67;;;9.10;99.90;;;;;;5076841;28;20323;-81
2023/11/11 07:39:27;;;;;;;5.22;4.32;;;9.10;99.90;;;;;;5076381;28;20293;-81
2023/11/11 07:41:54;;;;;;;6.30;4.30;;;9.10;99.90;;;;;;5077030;28;20235;-81
2023/11/11 07:44:22;;;;;;;4.68;3.63;;;9.20;99.90;;;;;;5077021;28;20311;-81
2023/11/11 07:46:49;;;;;;;6.45;4.13;;;9.20;99.90;;;;;;5077875;28;20220;-81
2023/11/11 07:49:18;;;;;;;5.30;4.30;;;9.20;99.90;;;;;;5077376;28;20224;-82
2023/11/11 07:51:45;;;;;;;3.67;3.38;;;9.30;99.90;;;;;;5077797;28;20316;-81
2023/11/11 07:54:15;;;;;;;5.50;3.88;;;9.40;99.90;;;;;;5076729;28;20702;-81
2023/11/11 07:56:42;;;;;;;5.28;4.45;;;9.40;99.90;;;;;;5077262;28;20224;-81
2023/11/11 07:59:09;;;;;;;6.10;4.00;;;9.50;99.90;;;;;;5050085;28;20296;-81
2023/11/11 08:01:36;;;;;;;5.30;3.60;;;9.50;99.90;;;;;;5076198;28;20243;-80
2023/11/11 08:04:04;;;;;;;4.95;4.03;;;9.50;99.90;;;;;;5077092;28;20231;-81
2023/11/11 08:06:32;;;;;;;3.75;3.45;;;9.60;99.90;;;;;;5076913;28;20898;-80
2023/11/11 08:08:59;;;;;;;5.30;3.65;;;9.60;99.90;;;;;;5077229;28;20247;-81
2023/11/11 08:11:26;;;;;;;8.95;5.97;;;9.70;99.90;;;;;;5076262;28;20220;-79
2023/11/11 08:13:53;;;;;;;14.40;11.13;;;9.70;99.90;;;;;;5077255;28;20282;-81
2023/11/11 08:16:20;;;;;;;27.38;23.00;;;9.70;99.90;;;;;;5076620;28;20228;-81
2023/11/11 08:19:42;;;;;;;31.98;20.48;;;9.80;99.90;;;;;;5077369;28;20258;-80
2023/11/11 08:22:10;;;;;;;5.90;4.90;;;9.80;99.90;;;;;;5070937;28;20285;-80
2023/11/11 08:24:37;;;;;;;8.15;5.88;;;9.80;99.90;;;;;;5077405;28;20713;-81
2023/11/11 08:27:05;;;;;;;5.85;4.95;;;9.90;99.90;;;;;;5076945;28;20258;-80
2023/11/11 08:29:32;;;;;;;5.82;4.07;;;9.90;99.90;;;;;;5076808;28;20289;-79
2023/11/11 08:31:59;;;;;;;3.15;2.85;;;10.00;99.90;;;;;;5076118;28;20299;-79
2023/11/11 08:34:30;;;;;;;3.42;3.13;;;10.00;99.90;;;;;;5076065;28;20688;-79
2023/11/11 08:36:57;;;;;;;3.30;2.80;;;10.00;99.90;;;;;;5075587;28;20560;-80
2023/11/11 08:39:26;;;;;;;3.58;3.25;;;10.10;99.90;;;;;;5076345;28;20277;-79
2023/11/11 08:41:54;;;;;;;3.53;3.22;;;10.10;99.90;;;;;;5075914;28;20220;-79
2023/11/11 08:44:21;;;;;;;4.43;4.03;;;10.10;99.90;;;;;;5076064;28;20246;-79
2023/11/11 08:46:49;;;;;;;11.93;7.68;;;10.10;99.90;;;;;;5075849;28;20228;-78
2023/11/11 08:49:16;;;;;;;4.40;3.72;;;10.10;99.90;;;;;;5075426;28;20228;-79
2023/11/11 08:51:43;;;;;;;6.53;5.85;;;10.10;99.90;;;;;;5076519;28;20220;-79
2023/11/11 08:54:10;;;;;;;4.28;3.88;;;10.10;99.90;;;;;;5075523;28;20286;-78
2023/11/11 08:56:38;;;;;;;4.68;4.25;;;10.10;99.90;;;;;;5076289;28;20600;-79
2023/11/11 08:59:06;;;;;;;4.50;3.80;;;10.20;99.90;;;;;;5076042;28;20322;-79
2023/11/11 09:01:33;;;;;;;6.40;5.10;;;10.20;99.90;;;;;;5079044;28;20220;-79
2023/11/11 09:04:00;;;;;;;5.72;4.85;;;10.30;99.90;;;;;;5076627;28;20312;-79
2023/11/11 09:06:28;;;;;;;4.43;3.67;;;10.30;99.90;;;;;;5078243;28;20267;-80
2023/11/11 09:08:54;;;;;;;4.78;3.60;;;10.30;99.90;;;;;;5080028;28;20232;-81
2023/11/11 09:11:22;;;;;;;4.03;3.65;;;10.40;99.90;;;;;;5079215;28;20605;-81
2023/11/11 09:13:52;;;;;;;3.80;3.47;;;10.40;99.90;;;;;;5078743;28;20228;-81
2023/11/11 09:16:19;;;;;;;4.90;3.88;;;10.50;99.90;;;;;;5080714;28;20285;-82
2023/11/11 09:18:47;;;;;;;5.00;4.55;;;10.50;99.90;;;;;;5080361;28;20673;-81
2023/11/11 09:21:14;;;;;;;5.68;4.45;;;10.50;99.90;;;;;;5081648;28;20553;-79
2023/11/11 09:23:42;;;;;;;6.00;3.40;;;10.50;99.90;;;;;;5079391;28;20309;-80
2023/11/11 09:26:09;;;;;;;6.50;4.57;;;10.60;99.90;;;;;;5076488;28;20234;-80
2023/11/11 09:28:37;;;;;;;6.90;4.10;;;10.60;99.90;;;;;;5080580;28;20264;-81
2023/11/11 09:31:05;;;;;;;3.90;3.03;;;10.60;99.90;;;;;;5090581;28;20244;-81
2023/11/11 09:33:32;;;;;;;4.82;3.75;;;10.70;99.90;;;;;;5090861;28;20246;-81
2023/11/11 09:36:00;;;;;;;8.13;4.25;;;10.70;99.90;;;;;;5090849;28;20211;-80
2023/11/11 09:38:27;;;;;;;4.13;3.38;;;10.70;99.90;;;;;;5089837;28;20230;-83
2023/11/11 09:40:54;;;;;;;3.95;3.60;;;10.80;99.90;;;;;;5088453;28;20216;-81
2023/11/11 09:43:21;;;;;;;3.92;3.45;;;10.70;99.90;;;;;;5089958;28;20243;-81
2023/11/11 09:45:51;;;;;;;6.65;5.00;;;10.70;99.90;;;;;;5088219;28;20243;-78
2023/11/11 09:48:20;;;;;;;5.60;4.50;;;10.70;99.90;;;;;;5082103;28;20289;-79
2023/11/11 09:50:47;;;;;;;4.75;4.20;;;10.80;99.90;;;;;;5084280;28;20215;-79
2023/11/11 09:53:14;;;;;;;4.25;3.03;;;10.80;99.90;;;;;;5083116;28;20262;-80
2023/11/11 09:55:44;;;;;;;3.33;3.03;;;10.80;99.90;;;;;;5081257;28;20231;-80
2023/11/11 09:58:11;;;;;;;5.65;3.15;;;10.80;99.90;;;;;;5080857;28;20220;-81
2023/11/11 10:00:40;;;;;;;4.57;3.47;;;10.90;99.90;;;;;;5082690;28;20238;-80
2023/11/11 10:03:07;;;;;;;4.65;3.30;;;10.90;99.90;;;;;;5085910;28;20662;-82
2023/11/11 10:05:36;;;;;;;2.75;2.55;;;11.00;99.90;;;;;;5087711;28;20252;-82
2023/11/11 10:08:03;;;;;;;4.30;3.65;;;11.10;99.90;;;;;;5081485;28;20242;-81
2023/11/11 10:10:32;;;;;;;3.88;2.70;;;11.10;99.90;;;;;;5076632;28;20302;-81
2023/11/11 10:12:59;;;;;;;4.50;3.28;;;11.10;99.90;;;;;;5075261;28;20232;-81
2023/11/11 10:15:26;;;;;;;4.35;3.63;;;11.20;99.90;;;;;;5074766;28;20243;-80
2023/11/11 10:17:54;;;;;;;3.65;3.35;;;11.20;99.90;;;;;;5074969;28;20673;-81
2023/11/11 10:20:21;;;;;;;3.05;2.58;;;11.20;99.90;;;;;;5073468;28;20220;-81
2023/11/11 10:22:50;;;;;;;2.97;2.70;;;11.20;99.90;;;;;;5074625;28;20223;-80
2023/11/11 10:25:18;;;;;;;4.13;3.28;;;11.20;99.90;;;;;;5073606;28;20289;-78
2023/11/11 10:27:50;;;;;;;4.45;3.30;;;11.20;99.90;;;;;;5073899;28;20223;-79
2023/11/11 10:30:19;;;;;;;3.35;3.05;;;11.20;99.90;;;;;;5073312;28;20230;-80
2023/11/11 10:32:48;;;;;;;3.45;3.15;;;11.20;99.90;;;;;;5073971;28;20223;-80
2023/11/11 10:35:16;;;;;;;5.72;4.57;;;11.20;99.90;;;;;;5072909;28;20323;-80
2023/11/11 10:37:44;;;;;;;4.53;3.40;;;11.20;99.90;;;;;;5073757;28;20220;-79
2023/11/11 10:40:14;;;;;;;4.20;3.20;;;11.20;99.90;;;;;;5073482;28;20227;-80
2023/11/11 10:42:49;;;;;;;12.88;6.85;;;11.20;99.90;;;;;;5074102;28;20235;-79
2023/11/11 10:45:17;;;;;;;8.30;7.10;;;11.20;99.90;;;;;;5073448;28;20255;-81
2023/11/11 10:47:44;;;;;;;5.38;4.05;;;11.20;99.90;;;;;;5073225;28;20307;-80
2023/11/11 10:50:18;;;;;;;3.83;3.20;;;11.20;99.90;;;;;;5072201;28;20255;-80
2023/11/11 10:52:45;;;;;;;3.47;3.17;;;11.20;99.90;;;;;;5065765;28;20234;-82
2023/11/11 10:55:13;;;;;;;5.60;4.90;;;11.30;99.90;;;;;;5074467;28;20640;-81
2023/11/11 10:57:42;;;;;;;3.35;3.05;;;11.40;99.90;;;;;;5074338;28;20234;-80
2023/11/11 11:00:17;;;;;;;4.50;3.38;;;11.40;99.90;;;;;;5073772;28;20228;-79
2023/11/11 11:02:46;;;;;;;3.95;3.55;;;11.50;99.90;;;;;;5073190;28;20294;-80
2023/11/11 11:05:19;;;;;;;3.25;3.00;;;11.50;99.90;;;;;;5072341;28;20234;-79
2023/11/11 11:07:52;;;;;;;5.05;3.95;;;11.60;99.90;;;;;;5073653;28;20230;-80
2023/11/11 11:10:28;;;;;;;9.70;3.90;;;11.60;99.90;;;;;;5073648;28;20700;-79
2023/11/11 11:13:01;;;;;;;5.63;3.60;;;11.60;99.90;;;;;;5072857;28;20291;-79
2023/11/11 11:15:29;;;;;;;3.50;3.20;;;11.70;99.90;;;;;;5073196;28;20224;-79
2023/11/11 11:17:56;;;;;;;4.30;3.67;;;11.70;99.90;;;;;;5073528;28;20227;-79
2023/11/11 11:20:26;;;;;;;4.00;3.10;;;11.70;99.90;;;;;;5072725;28;20281;-80
2023/11/11 11:23:00;;;;;;;4.22;3.30;;;11.70;99.90;;;;;;5072685;28;20231;-82
2023/11/11 11:25:40;;;;;;;3.33;3.00;;;11.80;99.90;;;;;;5073152;28;20224;-80
2023/11/11 11:28:25;;;;;;;6.25;3.13;;;11.90;99.90;;;;;;5072760;28;20224;-80
2023/11/11 11:30:54;;;;;;;4.72;3.38;;;11.90;99.90;;;;;;5072120;28;20228;-80
2023/11/11 11:33:25;;;;;;;7.20;4.13;;;11.90;99.90;;;;;;5073674;28;20219;-79
2023/11/11 11:35:54;;;;;;;4.40;3.10;;;11.90;99.90;;;;;;5072130;28;20239;-79
2023/11/11 11:38:29;;;;;;;4.35;3.30;;;11.90;99.90;;;;;;5072974;28;20231;-80
2023/11/11 11:41:10;;;;;;;2.70;2.50;;;11.80;99.90;;;;;;5072669;28;20285;-81
2023/11/11 11:43:38;;;;;;;3.63;2.83;;;11.90;99.90;;;;;;5073167;28;20227;-80
2023/11/11 11:46:06;;;;;;;2.88;2.65;;;11.90;99.90;;;;;;5072489;28;20554;-78
2023/11/11 11:48:35;;;;;;;3.30;2.50;;;12.00;99.90;;;;;;5076014;28;20269;-79
2023/11/11 11:51:05;;;;;;;3.85;3.13;;;12.00;99.90;;;;;;5076243;28;20231;-82
2023/11/11 11:53:32;;;;;;;4.35;3.00;;;12.00;99.90;;;;;;5077420;28;20220;-80
2023/11/11 11:55:59;;;;;;;3.75;3.15;;;12.00;99.90;;;;;;5076419;28;20659;-79
2023/11/11 11:58:27;;;;;;;3.30;3.05;;;12.00;99.90;;;;;;5076780;28;20690;-79
2023/11/11 12:00:54;;;;;;;3.47;3.13;;;12.00;99.90;;;;;;5076290;28;20309;-79
2023/11/11 12:03:21;;;;;;;3.40;2.90;;;12.10;99.90;;;;;;5075476;28;20615;-80
2023/11/11 12:05:52;;;;;;;6.35;4.18;;;12.10;99.90;;;;;;5076398;28;20224;-80
2023/11/11 12:08:20;;;;;;;4.78;3.63;;;12.10;99.90;;;;;;5077030;28;20279;-80
2023/11/11 12:10:48;;;;;;;4.60;3.35;;;12.10;99.90;;;;;;5076452;28;20557;-81
2023/11/11 12:13:17;;;;;;;3.78;3.15;;;12.10;99.90;;;;;;5077144;28;20216;-81
2023/11/11 12:15:53;;;;;;;4.05;3.47;;;12.10;99.90;;;;;;5077250;28;20228;-80
2023/11/11 12:18:27;;;;;;;2.80;2.60;;;12.20;99.90;;;;;;5076760;28;20239;-79
2023/11/11 12:20:54;;;;;;;4.10;2.92;;;12.20;99.90;;;;;;5077033;28;20715;-80
2023/11/11 12:23:21;;;;;;;3.30;3.00;;;12.20;99.90;;;;;;5072941;28;20220;-80
2023/11/11 12:25:48;;;;;;;3.65;3.35;;;12.20;99.90;;;;;;5054027;28;20248;-79
2023/11/11 12:28:16;;;;;;;8.73;4.65;;;12.20;99.90;;;;;;5063096;28;20285;-79
2023/11/11 12:30:46;;;;;;;4.03;3.15;;;12.20;99.90;;;;;;5075793;28;20242;-81
2023/11/11 12:33:14;;;;;;;3.92;3.53;;;12.20;99.90;;;;;;5075411;28;20281;-78
2023/11/11 12:35:42;;;;;;;3.70;3.40;;;12.20;99.90;;;;;;5081970;28;20219;-78
2023/11/11 12:38:34;;;;;;;4.30;3.78;;;12.20;99.90;;;;;;5095476;28;20231;-79
2023/11/11 12:41:11;;;;;;;4.07;3.75;;;12.20;99.90;;;;;;5096196;28;20230;-78
2023/11/11 12:43:58;;;;;;;3.72;3.42;;;12.20;99.90;;;;;;5097529;28;20617;-80
2023/11/11 12:46:25;;;;;;;3.75;3.42;;;12.20;99.90;;;;;;5095426;28;20246;-81
2023/11/11 12:48:54;;;;;;;4.07;3.55;;;12.20;99.90;;;;;;5096162;28;20258;-80
2023/11/11 12:51:27;;;;;;;10.38;6.72;;;12.20;99.90;;;;;;5095604;28;20230;-80
2023/11/11 12:53:55;;;;;;;6.25;5.50;;;12.20;99.90;;;;;;5097983;28;20247;-80
2023/11/11 12:56:24;;;;;;;6.85;5.53;;;12.20;99.90;;;;;;5099380;28;20696;-80
2023/11/11 12:59:04;;;;;;;7.85;5.38;;;12.20;99.90;;;;;;5097142;28;20220;-79